createdAt,value
2023-02-14T00:01:12.871Z,103355.88
2023-02-14T00:06:35.759Z,103359.19
2023-02-14T00:11:57.424Z,103354.84
2023-02-14T00:17:19.217Z,103349.66
2023-02-14T00:22:41.159Z,103353.47
2023-02-14T00:28:02.900Z,103345.56
2023-02-14T00:33:24.582Z,103334.84
2023-02-14T00:38:46.354Z,103339.03
2023-02-14T00:44:09.814Z,103328.31
2023-02-14T00:49:31.674Z,103332.16
2023-02-14T00:54:53.367Z,103334.22
2023-02-14T01:00:15.630Z,103327.16
2023-02-14T01:05:37.413Z,103338.41
2023-02-14T01:11:06.363Z,103340.50
2023-02-14T01:16:29.316Z,103338.13
2023-02-14T01:21:51.067Z,103339.16
2023-02-14T01:27:12.866Z,103340.19
2023-02-14T01:32:35.107Z,103330.31
2023-02-14T01:37:57.140Z,103335.22
2023-02-14T01:43:18.968Z,103333.28
2023-02-14T01:48:41.124Z,103318.97
2023-02-14T01:54:05.931Z,103321.91
2023-02-14T01:59:33.665Z,103328.66
2023-02-14T02:04:56.716Z,103319.66
2023-02-14T02:10:19.280Z,103314.31
2023-02-14T02:16:25.765Z,103312.59
2023-02-14T02:22:22.405Z,103311.91
2023-02-14T02:28:03.628Z,103309.53
2023-02-14T02:33:31.279Z,103301.59
2023-02-14T02:39:17.724Z,103304.16
2023-02-14T02:44:59.954Z,103296.41
2023-02-14T02:50:48.996Z,103305.75
2023-02-14T02:56:38.561Z,103302.31
2023-02-14T03:02:32.297Z,103300.56
2023-02-14T03:07:54.021Z,103308.22
2023-02-14T03:13:34.151Z,103311.00
2023-02-14T03:19:39.306Z,103302.84
2023-02-14T03:25:17.461Z,103295.78
2023-02-14T03:31:00.650Z,103302.56
2023-02-14T03:36:29.658Z,103296.34
2023-02-14T03:41:58.007Z,103298.41
2023-02-14T03:47:25.021Z,103303.75
2023-02-14T03:52:51.042Z,103296.88
2023-02-14T03:58:37.745Z,103305.84
2023-02-14T04:03:59.835Z,103302.78
2023-02-14T04:09:21.554Z,103303.81
2023-02-14T04:14:43.243Z,103302.91
2023-02-14T04:20:05.833Z,103300.13
2023-02-14T04:25:27.902Z,103306.75
2023-02-14T04:30:49.603Z,103300.50
2023-02-14T04:36:11.284Z,103312.63
2023-02-14T04:41:32.970Z,103308.13
2023-02-14T04:46:54.834Z,103299.16
2023-02-14T04:52:16.620Z,103300.03
2023-02-14T04:57:38.369Z,103300.38
2023-02-14T05:03:00.112Z,103292.06
2023-02-14T05:08:21.798Z,103280.31
2023-02-14T05:13:43.501Z,103279.63
2023-02-14T05:19:05.318Z,103282.41
2023-02-14T05:24:27.075Z,103291.75
2023-02-14T05:29:48.822Z,103279.81
2023-02-14T05:35:10.683Z,103288.28
2023-02-14T05:40:33.121Z,103291.25
2023-02-14T05:45:54.926Z,103282.94
2023-02-14T05:51:16.686Z,103289.50
2023-02-14T05:56:38.532Z,103286.06
2023-02-14T06:02:00.324Z,103281.75
2023-02-14T06:07:22.145Z,103286.59
2023-02-14T06:12:44.242Z,103287.28
2023-02-14T06:18:06.243Z,103289.38
2023-02-14T06:23:28.056Z,103292.13
2023-02-14T06:28:56.459Z,103295.09
2023-02-14T06:34:18.178Z,103296.97
2023-02-14T06:39:40.351Z,103295.25
2023-02-14T06:45:02.958Z,103286.09
2023-02-14T06:50:25.606Z,103287.34
2023-02-14T06:55:47.756Z,103287.34
2023-02-14T07:01:09.640Z,103292.19
2023-02-14T07:06:31.743Z,103293.91
2023-02-14T07:11:53.463Z,103289.22
2023-02-14T07:17:15.225Z,103294.75
2023-02-14T07:22:37.461Z,103291.16
2023-02-14T07:27:59.534Z,103291.84
2023-02-14T07:33:21.316Z,103289.72
2023-02-14T07:38:43.143Z,103290.91
2023-02-14T07:44:05.198Z,103288.56
2023-02-14T07:49:27.054Z,103288.22
2023-02-14T07:54:48.824Z,103287.88
2023-02-14T08:00:10.976Z,103288.53
2023-02-14T08:05:32.806Z,103294.69
2023-02-14T08:10:54.789Z,103294.63
2023-02-14T08:16:16.566Z,103299.97
2023-02-14T08:21:38.506Z,103293.94
2023-02-14T08:27:00.431Z,103293.22
2023-02-14T08:32:22.274Z,103291.69
2023-02-14T08:37:44.043Z,103295.63
2023-02-14T08:43:07.590Z,103297.66
2023-02-14T08:48:29.421Z,103301.53
2023-02-14T08:53:52.169Z,103297.56
2023-02-14T08:59:13.816Z,103294.59
2023-02-14T09:04:36.122Z,103283.38
2023-02-14T09:09:57.838Z,103294.56
2023-02-14T09:15:19.961Z,103289.97
2023-02-14T09:20:41.806Z,103275.59
2023-02-14T09:26:05.696Z,103284.88
2023-02-14T09:31:27.504Z,103279.31
2023-02-14T09:36:49.208Z,103285.97
2023-02-14T09:42:29.412Z,103273.88
2023-02-14T09:48:11.457Z,103268.22
2023-02-14T09:53:37.092Z,103275.91
2023-02-14T09:59:01.437Z,103272.19
2023-02-14T10:04:37.126Z,103275.97
2023-02-14T10:10:18.683Z,103271.16
2023-02-14T10:15:45.065Z,103265.13
2023-02-14T10:21:08.448Z,103267.22
2023-02-14T10:26:37.280Z,103272.94
2023-02-14T10:32:04.701Z,103270.53
2023-02-14T10:38:05.076Z,103259.66
2023-02-14T10:43:37.205Z,103260.22
2023-02-14T10:49:24.873Z,103251.22
2023-02-14T10:55:00.211Z,103254.16
2023-02-14T11:00:31.094Z,103249.47
2023-02-14T11:05:52.918Z,103238.94
2023-02-14T11:11:24.009Z,103229.75
2023-02-14T11:16:45.779Z,103218.03
2023-02-14T11:22:10.362Z,103220.97
2023-02-14T11:27:32.776Z,103204.56
2023-02-14T11:32:57.522Z,103203.53
2023-02-14T11:38:40.154Z,103195.91
2023-02-14T11:44:22.340Z,103172.72
2023-02-14T11:50:02.763Z,103174.41
2023-02-14T11:55:28.391Z,103163.75
2023-02-14T12:00:53.449Z,103147.50
2023-02-14T12:06:36.593Z,103148.84
2023-02-14T12:12:01.307Z,103142.81
2023-02-14T12:17:33.768Z,103130.91
2023-02-14T12:23:02.907Z,103125.34
2023-02-14T12:28:41.564Z,103119.81
2023-02-14T12:34:04.170Z,103111.03
2023-02-14T12:40:02.443Z,103112.56
2023-02-14T12:45:43.733Z,103095.28
2023-02-14T12:51:26.432Z,103086.13
2023-02-14T12:56:56.136Z,103084.56
2023-02-14T13:02:38.690Z,103076.97
2023-02-14T13:08:17.872Z,103072.47
2023-02-14T13:13:48.387Z,103065.41
2023-02-14T13:19:37.871Z,103061.78
2023-02-14T13:25:16.338Z,103056.25
2023-02-14T13:30:38.995Z,103045.56
2023-02-14T13:36:04.206Z,103039.16
2023-02-14T13:41:28.257Z,103032.75
2023-02-14T13:46:52.203Z,103028.97
2023-02-14T13:52:14.162Z,103019.97
2023-02-14T13:57:37.804Z,103019.97
2023-02-14T14:02:59.557Z,103016.38
2023-02-14T14:08:21.277Z,103010.84
2023-02-14T14:13:43.056Z,103008.22
2023-02-14T14:19:17.175Z,103008.91
2023-02-14T14:24:41.153Z,102999.94
2023-02-14T14:30:15.542Z,102996.13
2023-02-14T14:35:37.337Z,102993.72
2023-02-14T14:41:01.154Z,102993.72
2023-02-14T14:46:23.865Z,102983.69
2023-02-14T14:51:45.884Z,102985.44
2023-02-14T14:57:07.652Z,102988.38
2023-02-14T15:02:32.097Z,102980.28
2023-02-14T15:07:54.044Z,102981.13
2023-02-14T15:13:34.412Z,102969.22
2023-02-14T15:18:59.903Z,102967.50
2023-02-14T15:24:21.716Z,102967.50
2023-02-14T15:29:54.395Z,102968.34
2023-02-14T15:35:19.559Z,102960.25
2023-02-14T15:40:43.851Z,102963.19
2023-02-14T15:46:28.583Z,102963.19
2023-02-14T15:51:51.220Z,102964.41
2023-02-14T15:57:24.255Z,102955.09
2023-02-14T16:02:49.138Z,102966.50
2023-02-14T16:08:31.857Z,102949.75
2023-02-14T16:13:53.826Z,102955.09
2023-02-14T16:19:42.350Z,102953.78
2023-02-14T16:25:04.156Z,102955.41
2023-02-14T16:30:25.866Z,102958.97
2023-02-14T16:35:48.988Z,102957.84
2023-02-14T16:41:33.089Z,102959.69
2023-02-14T16:46:54.847Z,102944.78
2023-02-14T16:52:21.795Z,102954.81
2023-02-14T16:57:47.591Z,102956.03
2023-02-14T17:03:11.616Z,102958.81
2023-02-14T17:08:33.426Z,102968.81
2023-02-14T17:13:55.951Z,102967.78
2023-02-14T17:19:17.995Z,102965.00
2023-02-14T17:24:40.121Z,102964.75
2023-02-14T17:30:01.897Z,102981.25
2023-02-14T17:35:23.689Z,102973.59
2023-02-14T17:40:45.438Z,102971.81
2023-02-14T17:46:08.006Z,102970.09
2023-02-14T17:51:29.851Z,102962.19
2023-02-14T17:56:51.525Z,102954.91
2023-02-14T18:02:13.839Z,102957.06
2023-02-14T18:07:35.973Z,102959.19
2023-02-14T18:12:57.842Z,102961.72
2023-02-14T18:18:20.006Z,102965.03
2023-02-14T18:23:42.008Z,102954.66
2023-02-14T18:29:07.416Z,102953.66
2023-02-14T18:34:32.951Z,102945.84
2023-02-14T18:39:54.638Z,102954.63
2023-02-14T18:45:16.443Z,102945.16
2023-02-14T18:50:38.242Z,102945.03
2023-02-14T18:56:04.185Z,102937.50
2023-02-14T19:01:31.685Z,102929.16
2023-02-14T19:06:53.850Z,102925.06
2023-02-14T19:12:15.864Z,102925.00
2023-02-14T19:17:38.493Z,102916.34
2023-02-14T19:23:00.145Z,102924.34
2023-02-14T19:28:21.972Z,102913.81
2023-02-14T19:33:45.462Z,102913.56
2023-02-14T19:39:07.201Z,102913.94
2023-02-14T19:44:30.307Z,102913.53
2023-02-14T19:49:52.169Z,102912.28
2023-02-14T19:55:21.441Z,102902.47
2023-02-14T20:00:43.299Z,102901.19
2023-02-14T20:06:05.118Z,102893.06
2023-02-14T20:11:35.708Z,102892.63
2023-02-14T20:16:59.889Z,102888.09
2023-02-14T20:22:23.312Z,102881.88
2023-02-14T20:27:45.042Z,102873.56
2023-02-14T20:33:06.852Z,102859.66
2023-02-14T20:38:28.561Z,102868.59
2023-02-14T20:43:50.302Z,102857.28
2023-02-14T20:49:12.493Z,102860.47
2023-02-14T20:54:34.239Z,102849.34
2023-02-14T20:59:56.047Z,102853.84
2023-02-14T21:05:18.634Z,102850.66
2023-02-14T21:10:40.481Z,102847.44
2023-02-14T21:16:11.831Z,102846.81
2023-02-14T21:21:39.696Z,102849.38
2023-02-14T21:27:02.364Z,102841.44
2023-02-14T21:32:24.105Z,102839.94
2023-02-14T21:37:45.840Z,102830.09
2023-02-14T21:43:07.538Z,102831.38
2023-02-14T21:48:48.134Z,102834.69
2023-02-14T21:54:10.270Z,102833.78
2023-02-14T21:59:31.958Z,102834.19
2023-02-14T22:04:53.696Z,102827.09
2023-02-14T22:10:15.445Z,102821.72
2023-02-14T22:15:40.255Z,102816.78
2023-02-14T22:21:04.453Z,102815.63
2023-02-14T22:26:29.348Z,102811.28
2023-02-14T22:31:51.262Z,102806.94
2023-02-14T22:37:13.054Z,102813.97
2023-02-14T22:42:34.765Z,102809.63
2023-02-14T22:47:56.826Z,102807.69
2023-02-14T22:53:18.648Z,102795.66
2023-02-14T22:58:40.533Z,102810.13
2023-02-14T23:04:03.737Z,102802.63
2023-02-14T23:09:25.662Z,102802.59
2023-02-14T23:15:05.732Z,102796.78
2023-02-14T23:20:46.308Z,102794.59
2023-02-14T23:26:08.102Z,102799.03
2023-02-14T23:31:30.115Z,102801.13
2023-02-14T23:36:52.019Z,102789.81
2023-02-14T23:42:15.244Z,102781.19
2023-02-14T23:47:36.936Z,102789.06
2023-02-14T23:52:59.426Z,102786.69
2023-02-14T23:58:21.151Z,102779.84
